sensor_id;sensor_type;location;lat;lon;timestamp;pressure;altitude;pressure_sealevel;temperature;humidity
61113;BME280;47184;57.998;56.184;2023-07-13T00:00:35;99135.88;;;16.48;66.86
61113;BME280;47184;57.998;56.184;2023-07-13T00:03:02;99159.19;;;16.52;67.19
61113;BME280;47184;57.998;56.184;2023-07-13T00:05:28;99158.81;;;16.49;67.45
61113;BME280;47184;57.998;56.184;2023-07-13T00:07:54;99164.75;;;16.51;67.28
61113;BME280;47184;57.998;56.184;2023-07-13T00:10:21;99173.94;;;16.55;67.46
61113;BME280;47184;57.998;56.184;2023-07-13T00:12:48;99153.03;;;16.33;67.78
61113;BME280;47184;57.998;56.184;2023-07-13T00:15:21;99169.00;;;16.33;68.17
61113;BME280;47184;57.998;56.184;2023-07-13T00:17:51;99180.59;;;16.21;69.02
61113;BME280;47184;57.998;56.184;2023-07-13T00:20:18;99177.28;;;16.25;68.80
61113;BME280;47184;57.998;56.184;2023-07-13T00:22:44;99177.31;;;16.19;68.88
61113;BME280;47184;57.998;56.184;2023-07-13T00:25:11;99171.09;;;16.00;69.62
61113;BME280;47184;57.998;56.184;2023-07-13T00:27:38;99179.06;;;16.06;69.44
61113;BME280;47184;57.998;56.184;2023-07-13T00:30:05;99189.28;;;16.09;69.47
61113;BME280;47184;57.998;56.184;2023-07-13T00:32:31;99155.19;;;15.93;69.19
61113;BME280;47184;57.998;56.184;2023-07-13T00:34:58;99180.78;;;15.94;69.96
61113;BME280;47184;57.998;56.184;2023-07-13T00:37:26;99189.44;;;15.83;70.63
61113;BME280;47184;57.998;56.184;2023-07-13T00:39:52;99172.09;;;15.80;70.71
61113;BME280;47184;57.998;56.184;2023-07-13T00:42:18;99195.53;;;15.97;70.28
61113;BME280;47184;57.998;56.184;2023-07-13T00:47:46;99194.06;;;16.01;70.07
61113;BME280;47184;57.998;56.184;2023-07-13T00:50:14;99191.78;;;16.04;70.19
61113;BME280;47184;57.998;56.184;2023-07-13T00:52:53;99204.63;;;16.14;70.00
61113;BME280;47184;57.998;56.184;2023-07-13T00:55:21;99197.97;;;16.23;69.80
61113;BME280;47184;57.998;56.184;2023-07-13T00:57:48;99194.50;;;16.23;69.59
61113;BME280;47184;57.998;56.184;2023-07-13T01:00:15;99209.28;;;16.19;70.23
61113;BME280;47184;57.998;56.184;2023-07-13T01:02:44;99212.06;;;16.30;69.71
61113;BME280;47184;57.998;56.184;2023-07-13T01:05:14;99204.78;;;16.44;69.24
61113;BME280;47184;57.998;56.184;2023-07-13T01:07:41;99185.47;;;16.24;69.41
61113;BME280;47184;57.998;56.184;2023-07-13T01:10:11;99224.31;;;16.38;69.34
61113;BME280;47184;57.998;56.184;2023-07-13T01:12:37;99228.75;;;16.19;70.02
61113;BME280;47184;57.998;56.184;2023-07-13T01:15:04;99229.28;;;16.28;69.91
61113;BME280;47184;57.998;56.184;2023-07-13T01:17:33;99223.50;;;16.38;69.63
61113;BME280;47184;57.998;56.184;2023-07-13T01:20:00;99179.44;;;16.10;69.39
61113;BME280;47184;57.998;56.184;2023-07-13T01:22:26;99208.50;;;16.12;70.44
61113;BME280;47184;57.998;56.184;2023-07-13T01:24:53;99201.56;;;16.10;70.03
61113;BME280;47184;57.998;56.184;2023-07-13T01:27:25;99219.50;;;16.22;70.07
61113;BME280;47184;57.998;56.184;2023-07-13T01:29:52;99218.88;;;16.26;70.06
61113;BME280;47184;57.998;56.184;2023-07-13T01:32:22;99175.88;;;15.91;70.37
61113;BME280;47184;57.998;56.184;2023-07-13T01:34:53;99223.16;;;16.27;70.53
61113;BME280;47184;57.998;56.184;2023-07-13T01:37:21;99234.56;;;16.34;70.30
61113;BME280;47184;57.998;56.184;2023-07-13T01:39:47;99231.25;;;16.39;70.09
61113;BME280;47184;57.998;56.184;2023-07-13T01:42:14;99221.38;;;16.21;70.57
61113;BME280;47184;57.998;56.184;2023-07-13T01:44:40;99230.56;;;16.25;70.64
61113;BME280;47184;57.998;56.184;2023-07-13T01:47:07;99230.00;;;16.17;70.85
61113;BME280;47184;57.998;56.184;2023-07-13T01:49:33;99218.31;;;16.18;70.70
61113;BME280;47184;57.998;56.184;2023-07-13T01:51:59;99216.44;;;16.25;70.33
61113;BME280;47184;57.998;56.184;2023-07-13T01:54:25;99229.63;;;16.13;70.97
61113;BME280;47184;57.998;56.184;2023-07-13T01:56:51;99232.59;;;16.23;70.48
61113;BME280;47184;57.998;56.184;2023-07-13T01:59:17;99228.28;;;16.29;70.10
61113;BME280;47184;57.998;56.184;2023-07-13T02:01:43;99232.59;;;16.23;70.34
61113;BME280;47184;57.998;56.184;2023-07-13T02:04:09;99235.88;;;16.25;70.23
61113;BME280;47184;57.998;56.184;2023-07-13T02:06:36;99245.75;;;16.18;70.57
61113;BME280;47184;57.998;56.184;2023-07-13T02:09:02;99237.47;;;16.01;71.16
61113;BME280;47184;57.998;56.184;2023-07-13T02:11:28;99239.34;;;16.01;71.50
61113;BME280;47184;57.998;56.184;2023-07-13T02:14:02;99229.22;;;15.78;71.97
61113;BME280;47184;57.998;56.184;2023-07-13T02:16:30;99237.22;;;15.71;72.39
61113;BME280;47184;57.998;56.184;2023-07-13T02:18:56;99220.75;;;15.43;73.75
61113;BME280;47184;57.998;56.184;2023-07-13T02:21:23;99248.03;;;15.18;75.90
61113;BME280;47184;57.998;56.184;2023-07-13T02:23:51;99240.56;;;14.95;77.20
61113;BME280;47184;57.998;56.184;2023-07-13T02:26:18;99233.59;;;14.81;77.92
61113;BME280;47184;57.998;56.184;2023-07-13T02:28:44;99210.78;;;14.53;78.93
61113;BME280;47184;57.998;56.184;2023-07-13T02:31:13;99245.09;;;14.75;79.83
61113;BME280;47184;57.998;56.184;2023-07-13T02:33:40;99227.09;;;14.64;80.03
61113;BME280;47184;57.998;56.184;2023-07-13T02:36:06;99224.84;;;14.67;80.28
61113;BME280;47184;57.998;56.184;2023-07-13T02:38:33;99228.69;;;14.84;80.74
61113;BME280;47184;57.998;56.184;2023-07-13T02:41:04;99208.47;;;14.83;81.01
61113;BME280;47184;57.998;56.184;2023-07-13T02:43:30;99226.00;;;15.04;80.94
61113;BME280;47184;57.998;56.184;2023-07-13T02:45:56;99217.97;;;15.18;80.44
61113;BME280;47184;57.998;56.184;2023-07-13T02:48:26;99234.69;;;15.38;80.25
61113;BME280;47184;57.998;56.184;2023-07-13T02:50:52;99230.78;;;15.41;80.30
61113;BME280;47184;57.998;56.184;2023-07-13T02:53:18;99239.28;;;15.69;79.52
61113;BME280;47184;57.998;56.184;2023-07-13T02:55:44;99225.31;;;15.80;78.92
61113;BME280;47184;57.998;56.184;2023-07-13T02:58:13;99238.25;;;15.77;79.04
61113;BME280;47184;57.998;56.184;2023-07-13T03:00:46;99251.19;;;15.60;79.24
61113;BME280;47184;57.998;56.184;2023-07-13T03:03:16;99213.16;;;15.46;79.28
61113;BME280;47184;57.998;56.184;2023-07-13T03:05:44;99209.44;;;15.54;78.89
61113;BME280;47184;57.998;56.184;2023-07-13T03:08:12;99216.69;;;15.85;78.08
61113;BME280;47184;57.998;56.184;2023-07-13T03:10:41;99233.09;;;16.14;77.59
61113;BME280;47184;57.998;56.184;2023-07-13T03:13:09;99249.00;;;16.20;77.44
61113;BME280;47184;57.998;56.184;2023-07-13T03:15:35;99252.28;;;16.22;77.49
61113;BME280;47184;57.998;56.184;2023-07-13T03:18:03;99245.84;;;16.05;77.91
61113;BME280;47184;57.998;56.184;2023-07-13T03:20:32;99270.28;;;15.95;78.29
61113;BME280;47184;57.998;56.184;2023-07-13T03:22:58;99267.91;;;15.80;78.58
61113;BME280;47184;57.998;56.184;2023-07-13T03:25:26;99279.41;;;15.74;79.11
61113;BME280;47184;57.998;56.184;2023-07-13T03:27:53;99277.88;;;15.40;80.02
61113;BME280;47184;57.998;56.184;2023-07-13T03:30:20;99236.06;;;14.82;81.84
61113;BME280;47184;57.998;56.184;2023-07-13T03:32:46;99284.72;;;14.90;83.31
61113;BME280;47184;57.998;56.184;2023-07-13T03:35:13;99273.88;;;14.84;83.28
61113;BME280;47184;57.998;56.184;2023-07-13T03:37:39;99263.47;;;14.56;85.55
61113;BME280;47184;57.998;56.184;2023-07-13T03:40:12;99267.50;;;14.19;87.64
61113;BME280;47184;57.998;56.184;2023-07-13T03:42:38;99302.69;;;14.41;88.64
61113;BME280;47184;57.998;56.184;2023-07-13T03:45:04;99281.59;;;14.13;89.16
61113;BME280;47184;57.998;56.184;2023-07-13T03:47:32;99310.44;;;14.29;89.21
61113;BME280;47184;57.998;56.184;2023-07-13T03:50:01;99308.56;;;14.23;90.22
61113;BME280;47184;57.998;56.184;2023-07-13T03:52:27;99305.09;;;14.23;91.10
61113;BME280;47184;57.998;56.184;2023-07-13T03:54:54;99285.72;;;14.29;91.00
61113;BME280;47184;57.998;56.184;2023-07-13T03:57:21;99307.19;;;14.47;90.56
61113;BME280;47184;57.998;56.184;2023-07-13T03:59:47;99306.41;;;14.60;90.25
61113;BME280;47184;57.998;56.184;2023-07-13T04:02:13;99309.66;;;14.69;90.73
61113;BME280;47184;57.998;56.184;2023-07-13T04:04:39;99325.41;;;14.70;91.01
61113;BME280;47184;57.998;56.184;2023-07-13T04:07:06;99274.09;;;14.56;90.85
61113;BME280;47184;57.998;56.184;2023-07-13T04:09:37;99312.94;;;15.10;90.25
61113;BME280;47184;57.998;56.184;2023-07-13T04:12:03;99313.28;;;15.34;90.16
61113;BME280;47184;57.998;56.184;2023-07-13T04:14:29;99317.78;;;15.33;89.51
61113;BME280;47184;57.998;56.184;2023-07-13T04:16:55;99305.69;;;15.44;89.09
61113;BME280;47184;57.998;56.184;2023-07-13T04:19:21;99326.09;;;15.64;88.20
61113;BME280;47184;57.998;56.184;2023-07-13T04:21:48;99316.03;;;15.79;87.48
61113;BME280;47184;57.998;56.184;2023-07-13T04:24:14;99324.88;;;16.11;86.65
61113;BME280;47184;57.998;56.184;2023-07-13T04:26:39;99320.13;;;16.20;86.27
61113;BME280;47184;57.998;56.184;2023-07-13T04:29:06;99323.91;;;16.69;85.55
61113;BME280;47184;57.998;56.184;2023-07-13T04:31:33;99323.91;;;16.94;84.32
61113;BME280;47184;57.998;56.184;2023-07-13T04:33:59;99324.81;;;17.31;83.12
61113;BME280;47184;57.998;56.184;2023-07-13T04:36:26;99301.25;;;17.46;81.89
61113;BME280;47184;57.998;56.184;2023-07-13T04:38:54;99296.88;;;17.89;80.67
61113;BME280;47184;57.998;56.184;2023-07-13T04:41:21;99290.31;;;18.03;78.25
61113;BME280;47184;57.998;56.184;2023-07-13T04:43:48;99325.91;;;18.15;76.31
61113;BME280;47184;57.998;56.184;2023-07-13T04:46:16;99333.59;;;18.23;75.24
61113;BME280;47184;57.998;56.184;2023-07-13T04:48:43;99312.22;;;17.56;73.58
61113;BME280;47184;57.998;56.184;2023-07-13T04:51:10;99329.06;;;17.75;73.85
61113;BME280;47184;57.998;56.184;2023-07-13T04:53:36;99323.84;;;17.99;73.27
61113;BME280;47184;57.998;56.184;2023-07-13T04:56:03;99319.59;;;18.10;72.39
61113;BME280;47184;57.998;56.184;2023-07-13T04:58:33;99287.78;;;18.20;71.12
61113;BME280;47184;57.998;56.184;2023-07-13T05:01:00;99327.41;;;18.95;70.12
61113;BME280;47184;57.998;56.184;2023-07-13T05:03:27;99338.56;;;19.15;68.52
61113;BME280;47184;57.998;56.184;2023-07-13T05:06:07;99333.44;;;18.78;65.59
61113;BME280;47184;57.998;56.184;2023-07-13T05:08:35;99327.72;;;18.75;65.70
61113;BME280;47184;57.998;56.184;2023-07-13T05:11:03;99296.59;;;18.50;65.51
61113;BME280;47184;57.998;56.184;2023-07-13T05:13:29;99307.06;;;18.52;65.47
61113;BME280;47184;57.998;56.184;2023-07-13T05:16:04;99326.09;;;18.44;65.17
61113;BME280;47184;57.998;56.184;2023-07-13T05:18:31;99325.88;;;18.87;64.39
61113;BME280;47184;57.998;56.184;2023-07-13T05:21:02;99332.41;;;18.91;63.97
61113;BME280;47184;57.998;56.184;2023-07-13T05:23:29;99313.06;;;18.89;63.79
61113;BME280;47184;57.998;56.184;2023-07-13T05:25:56;99319.25;;;19.01;63.49
61113;BME280;47184;57.998;56.184;2023-07-13T05:28:24;99335.66;;;19.40;63.04
61113;BME280;47184;57.998;56.184;2023-07-13T05:30:50;99316.53;;;19.48;61.87
61113;BME280;47184;57.998;56.184;2023-07-13T05:33:17;99289.44;;;19.45;60.37
61113;BME280;47184;57.998;56.184;2023-07-13T05:35:43;99321.94;;;19.89;59.82
61113;BME280;47184;57.998;56.184;2023-07-13T05:38:11;99330.34;;;19.92;58.49
61113;BME280;47184;57.998;56.184;2023-07-13T05:40:37;99274.09;;;19.81;57.91
61113;BME280;47184;57.998;56.184;2023-07-13T05:43:04;99336.59;;;19.98;57.49
61113;BME280;47184;57.998;56.184;2023-07-13T05:45:31;99303.75;;;19.91;57.21
61113;BME280;47184;57.998;56.184;2023-07-13T05:47:57;99307.19;;;20.32;56.66
61113;BME280;47184;57.998;56.184;2023-07-13T05:50:23;99317.00;;;20.55;56.46
61113;BME280;47184;57.998;56.184;2023-07-13T05:52:49;99332.31;;;20.88;55.91
61113;BME280;47184;57.998;56.184;2023-07-13T05:55:15;99329.53;;;20.99;55.80
61113;BME280;47184;57.998;56.184;2023-07-13T05:57:41;99286.38;;;20.50;55.87
61113;BME280;47184;57.998;56.184;2023-07-13T06:00:08;99324.06;;;20.61;56.21
61113;BME280;47184;57.998;56.184;2023-07-13T06:02:37;99327.06;;;20.19;56.67
61113;BME280;47184;57.998;56.184;2023-07-13T06:05:04;99333.34;;;20.24;56.72
61113;BME280;47184;57.998;56.184;2023-07-13T06:07:30;99329.06;;;20.12;56.64
61113;BME280;47184;57.998;56.184;2023-07-13T06:09:56;99327.72;;;20.09;56.71
61113;BME280;47184;57.998;56.184;2023-07-13T06:12:22;99330.19;;;19.99;56.79
61113;BME280;47184;57.998;56.184;2023-07-13T06:14:48;99290.47;;;19.44;57.16
61113;BME280;47184;57.998;56.184;2023-07-13T06:17:14;99341.81;;;19.52;57.75
61113;BME280;47184;57.998;56.184;2023-07-13T06:19:40;99334.25;;;19.38;58.30
61113;BME280;47184;57.998;56.184;2023-07-13T06:22:06;99319.94;;;19.09;58.66
61113;BME280;47184;57.998;56.184;2023-07-13T06:24:32;99334.47;;;19.01;58.88
61113;BME280;47184;57.998;56.184;2023-07-13T06:26:58;99331.44;;;18.86;59.41
61113;BME280;47184;57.998;56.184;2023-07-13T06:29:24;99344.72;;;19.04;59.25
61113;BME280;47184;57.998;56.184;2023-07-13T06:31:50;99331.47;;;19.09;59.13
61113;BME280;47184;57.998;56.184;2023-07-13T06:34:16;99350.66;;;19.18;59.18
61113;BME280;47184;57.998;56.184;2023-07-13T06:36:42;99345.91;;;19.32;58.82
61113;BME280;47184;57.998;56.184;2023-07-13T06:39:08;99337.50;;;19.63;58.06
61113;BME280;47184;57.998;56.184;2023-07-13T06:41:34;99333.94;;;19.86;57.50
61113;BME280;47184;57.998;56.184;2023-07-13T06:44:02;99318.22;;;19.90;57.20
61113;BME280;47184;57.998;56.184;2023-07-13T06:46:28;99329.03;;;19.95;56.65
61113;BME280;47184;57.998;56.184;2023-07-13T06:48:54;99348.50;;;19.90;56.72
61113;BME280;47184;57.998;56.184;2023-07-13T06:51:20;99344.09;;;19.84;57.17
61113;BME280;47184;57.998;56.184;2023-07-13T06:53:46;99318.78;;;19.40;57.88
61113;BME280;47184;57.998;56.184;2023-07-13T06:56:12;99349.25;;;19.62;57.95
61113;BME280;47184;57.998;56.184;2023-07-13T06:58:38;99337.00;;;19.78;57.63
61113;BME280;47184;57.998;56.184;2023-07-13T07:01:05;99312.47;;;19.98;57.16
61113;BME280;47184;57.998;56.184;2023-07-13T07:03:31;99324.41;;;20.19;57.14
61113;BME280;47184;57.998;56.184;2023-07-13T07:06:16;99328.97;;;20.35;57.15
61113;BME280;47184;57.998;56.184;2023-07-13T07:08:43;99343.00;;;21.21;55.62
61113;BME280;47184;57.998;56.184;2023-07-13T07:11:12;99339.78;;;21.58;54.17
61113;BME280;47184;57.998;56.184;2023-07-13T07:13:38;99308.63;;;21.35;53.58
61113;BME280;47184;57.998;56.184;2023-07-13T07:16:04;99336.72;;;21.71;53.05
61113;BME280;47184;57.998;56.184;2023-07-13T07:18:31;99312.38;;;21.56;52.23
61113;BME280;47184;57.998;56.184;2023-07-13T07:20:57;99342.03;;;22.10;51.36
61113;BME280;47184;57.998;56.184;2023-07-13T07:23:23;99352.47;;;22.07;49.05
61113;BME280;47184;57.998;56.184;2023-07-13T07:25:49;99339.75;;;22.46;48.28
61113;BME280;47184;57.998;56.184;2023-07-13T07:28:16;99335.13;;;23.06;47.35
61113;BME280;47184;57.998;56.184;2023-07-13T07:30:45;99343.97;;;23.38;46.67
61113;BME280;47184;57.998;56.184;2023-07-13T07:33:12;99345.63;;;24.07;45.71
61113;BME280;47184;57.998;56.184;2023-07-13T07:35:38;99329.75;;;24.16;45.01
61113;BME280;47184;57.998;56.184;2023-07-13T07:38:04;99353.16;;;23.90;44.94
61113;BME280;47184;57.998;56.184;2023-07-13T07:40:30;99344.44;;;23.72;44.74
61113;BME280;47184;57.998;56.184;2023-07-13T07:42:57;99364.34;;;24.29;43.83
61113;BME280;47184;57.998;56.184;2023-07-13T07:45:23;99350.28;;;24.32;43.47
61113;BME280;47184;57.998;56.184;2023-07-13T07:47:52;99338.06;;;23.94;43.71
61113;BME280;47184;57.998;56.184;2023-07-13T07:50:20;99352.41;;;23.52;44.56
61113;BME280;47184;57.998;56.184;2023-07-13T07:52:46;99351.50;;;23.36;44.99
61113;BME280;47184;57.998;56.184;2023-07-13T07:55:12;99346.19;;;23.04;45.61
61113;BME280;47184;57.998;56.184;2023-07-13T07:57:38;99354.16;;;22.94;46.29
61113;BME280;47184;57.998;56.184;2023-07-13T08:00:05;99351.91;;;22.86;46.48
61113;BME280;47184;57.998;56.184;2023-07-13T08:02:40;99337.84;;;23.53;45.81
61113;BME280;47184;57.998;56.184;2023-07-13T08:05:08;99331.03;;;25.66;42.15
61113;BME280;47184;57.998;56.184;2023-07-13T08:07:34;99353.13;;;25.99;40.77
61113;BME280;47184;57.998;56.184;2023-07-13T08:10:01;99348.44;;;26.15;41.04
61113;BME280;47184;57.998;56.184;2023-07-13T08:12:29;99344.41;;;26.07;39.97
61113;BME280;47184;57.998;56.184;2023-07-13T08:14:55;99362.44;;;26.72;38.90
61113;BME280;47184;57.998;56.184;2023-07-13T08:17:24;99347.03;;;26.67;38.32
61113;BME280;47184;57.998;56.184;2023-07-13T08:19:50;99360.53;;;26.28;38.79
61113;BME280;47184;57.998;56.184;2023-07-13T08:22:16;99357.31;;;26.21;39.22
61113;BME280;47184;57.998;56.184;2023-07-13T08:24:42;99351.50;;;25.98;39.10
61113;BME280;47184;57.998;56.184;2023-07-13T08:27:10;99361.16;;;26.14;38.70
61113;BME280;47184;57.998;56.184;2023-07-13T08:29:37;99359.22;;;26.25;38.51
61113;BME280;47184;57.998;56.184;2023-07-13T08:32:08;99360.16;;;25.95;38.92
61113;BME280;47184;57.998;56.184;2023-07-13T08:34:36;99331.19;;;25.20;39.57
61113;BME280;47184;57.998;56.184;2023-07-13T08:37:02;99367.13;;;25.01;40.16
61113;BME280;47184;57.998;56.184;2023-07-13T08:39:30;99372.22;;;24.46;40.84
61113;BME280;47184;57.998;56.184;2023-07-13T08:42:01;99350.66;;;23.78;41.74
61113;BME280;47184;57.998;56.184;2023-07-13T08:44:42;99364.47;;;23.39;42.28
61113;BME280;47184;57.998;56.184;2023-07-13T08:47:14;99352.03;;;22.69;43.72
61113;BME280;47184;57.998;56.184;2023-07-13T08:49:41;99366.78;;;22.34;44.47
61113;BME280;47184;57.998;56.184;2023-07-13T08:52:16;99374.44;;;21.38;47.13
61113;BME280;47184;57.998;56.184;2023-07-13T08:54:50;99365.78;;;20.51;49.29
61113;BME280;47184;57.998;56.184;2023-07-13T08:57:19;99363.47;;;20.15;50.22
61113;BME280;47184;57.998;56.184;2023-07-13T08:59:46;99348.78;;;20.17;50.53
61113;BME280;47184;57.998;56.184;2023-07-13T09:05:29;99363.00;;;21.64;48.26
61113;BME280;47184;57.998;56.184;2023-07-13T09:08:43;99361.53;;;23.51;45.11
61113;BME280;47184;57.998;56.184;2023-07-13T09:11:41;99367.94;;;24.76;42.82
61113;BME280;47184;57.998;56.184;2023-07-13T09:16:54;99378.47;;;24.92;41.50
61113;BME280;47184;57.998;56.184;2023-07-13T09:19:25;99378.47;;;25.03;41.49
61113;BME280;47184;57.998;56.184;2023-07-13T09:21:54;99371.44;;;25.27;41.23
61113;BME280;47184;57.998;56.184;2023-07-13T09:24:39;99369.13;;;25.90;40.16
61113;BME280;47184;57.998;56.184;2023-07-13T09:27:14;99376.19;;;26.80;38.77
61113;BME280;47184;57.998;56.184;2023-07-13T09:30:22;99368.97;;;29.00;35.76
61113;BME280;47184;57.998;56.184;2023-07-13T09:32:41;99378.69;;;32.66;30.99
61113;BME280;47184;57.998;56.184;2023-07-13T09:35:18;99377.16;;;34.06;27.75
61113;BME280;47184;57.998;56.184;2023-07-13T09:37:45;99372.81;;;34.46;27.40
61113;BME280;47184;57.998;56.184;2023-07-13T09:40:32;99362.09;;;35.65;26.21
61113;BME280;47184;57.998;56.184;2023-07-13T09:43:03;99351.06;;;36.14;25.82
61113;BME280;47184;57.998;56.184;2023-07-13T09:45:32;99345.44;;;36.11;25.41
61113;BME280;47184;57.998;56.184;2023-07-13T09:48:06;99363.22;;;36.41;25.27
61113;BME280;47184;57.998;56.184;2023-07-13T09:50:33;99368.69;;;35.28;25.73
61113;BME280;47184;57.998;56.184;2023-07-13T09:53:01;99340.38;;;34.69;25.95
61113;BME280;47184;57.998;56.184;2023-07-13T09:55:47;99354.03;;;34.15;26.33
61113;BME280;47184;57.998;56.184;2023-07-13T09:58:22;99353.91;;;34.12;25.71
61113;BME280;47184;57.998;56.184;2023-07-13T10:00:58;99351.63;;;33.55;25.62
61113;BME280;47184;57.998;56.184;2023-07-13T10:03:33;99349.88;;;33.80;25.37
61113;BME280;47184;57.998;56.184;2023-07-13T10:06:17;99338.34;;;33.95;25.00
61113;BME280;47184;57.998;56.184;2023-07-13T10:08:45;99354.34;;;33.84;24.37
61113;BME280;47184;57.998;56.184;2023-07-13T10:13:47;99348.63;;;34.48;23.97
61113;BME280;47184;57.998;56.184;2023-07-13T10:16:16;99347.69;;;33.26;23.99
61113;BME280;47184;57.998;56.184;2023-07-13T10:18:49;99315.38;;;31.72;25.62
61113;BME280;47184;57.998;56.184;2023-07-13T10:21:18;99339.16;;;31.71;25.97
61113;BME280;47184;57.998;56.184;2023-07-13T10:24:42;99336.63;;;31.35;26.81
61113;BME280;47184;57.998;56.184;2023-07-13T10:26:48;99331.66;;;31.06;26.72
61113;BME280;47184;57.998;56.184;2023-07-13T10:29:17;99340.28;;;30.54;27.47
61113;BME280;47184;57.998;56.184;2023-07-13T10:31:45;99313.63;;;29.79;28.40
61113;BME280;47184;57.998;56.184;2023-07-13T10:34:12;99329.19;;;29.65;28.92
61113;BME280;47184;57.998;56.184;2023-07-13T10:36:46;99339.28;;;29.04;29.54
61113;BME280;47184;57.998;56.184;2023-07-13T10:39:24;99335.03;;;28.46;30.25
61113;BME280;47184;57.998;56.184;2023-07-13T10:41:59;99341.94;;;27.72;31.22
61113;BME280;47184;57.998;56.184;2023-07-13T10:44:28;99338.28;;;27.62;31.59
61113;BME280;47184;57.998;56.184;2023-07-13T10:49:28;99327.22;;;29.24;30.19
61113;BME280;47184;57.998;56.184;2023-07-13T10:51:54;99284.81;;;29.23;29.68
61113;BME280;47184;57.998;56.184;2023-07-13T10:54:26;99316.66;;;28.89;29.71
61113;BME280;47184;57.998;56.184;2023-07-13T10:59:38;99332.22;;;27.95;30.78
61113;BME280;47184;57.998;56.184;2023-07-13T11:02:15;99322.97;;;27.72;31.32
61113;BME280;47184;57.998;56.184;2023-07-13T11:04:47;99326.78;;;27.47;32.02
61113;BME280;47184;57.998;56.184;2023-07-13T11:07:26;99329.28;;;27.19;32.06
61113;BME280;47184;57.998;56.184;2023-07-13T11:09:55;99329.16;;;27.53;31.88
61113;BME280;47184;57.998;56.184;2023-07-13T11:22:48;99330.47;;;33.25;25.75
61113;BME280;47184;57.998;56.184;2023-07-13T11:33:21;99319.94;;;37.10;21.45
61113;BME280;47184;57.998;56.184;2023-07-13T11:36:05;99318.81;;;37.78;20.70
61113;BME280;47184;57.998;56.184;2023-07-13T11:38:36;99304.97;;;38.49;19.97
61113;BME280;47184;57.998;56.184;2023-07-13T11:41:17;99306.84;;;36.91;21.29
61113;BME280;47184;57.998;56.184;2023-07-13T11:43:45;99297.63;;;35.14;22.06
61113;BME280;47184;57.998;56.184;2023-07-13T11:46:26;99307.63;;;33.89;23.28
61113;BME280;47184;57.998;56.184;2023-07-13T11:48:54;99307.22;;;33.49;23.78
61113;BME280;47184;57.998;56.184;2023-07-13T11:51:29;99318.44;;;33.86;23.33
61113;BME280;47184;57.998;56.184;2023-07-13T11:54:13;99305.03;;;33.63;23.75
61113;BME280;47184;57.998;56.184;2023-07-13T11:56:42;99307.97;;;34.50;23.13
61113;BME280;47184;57.998;56.184;2023-07-13T11:59:11;99305.59;;;36.05;22.14
61113;BME280;47184;57.998;56.184;2023-07-13T12:01:44;99276.06;;;37.33;20.68
61113;BME280;47184;57.998;56.184;2023-07-13T12:04:24;99303.16;;;39.71;18.78
61113;BME280;47184;57.998;56.184;2023-07-13T12:06:57;99299.50;;;41.43;17.78
61113;BME280;47184;57.998;56.184;2023-07-13T12:09:26;99296.47;;;42.42;16.95
61113;BME280;47184;57.998;56.184;2023-07-13T12:11:53;99292.59;;;42.93;16.62
61113;BME280;47184;57.998;56.184;2023-07-13T12:14:19;99303.66;;;43.79;16.31
61113;BME280;47184;57.998;56.184;2023-07-13T12:16:47;99296.00;;;44.08;15.68
61113;BME280;47184;57.998;56.184;2023-07-13T12:19:21;99288.59;;;43.55;14.94
61113;BME280;47184;57.998;56.184;2023-07-13T12:21:48;99291.41;;;43.37;15.44
61113;BME280;47184;57.998;56.184;2023-07-13T12:24:16;99290.19;;;42.74;15.52
61113;BME280;47184;57.998;56.184;2023-07-13T12:26:43;99285.03;;;41.16;15.98
61113;BME280;47184;57.998;56.184;2023-07-13T12:29:16;99267.06;;;39.34;17.00
61113;BME280;47184;57.998;56.184;2023-07-13T12:31:45;99278.34;;;39.02;16.86
61113;BME280;47184;57.998;56.184;2023-07-13T12:34:13;99273.47;;;39.19;17.33
61113;BME280;47184;57.998;56.184;2023-07-13T12:36:49;99270.63;;;40.21;16.57
61113;BME280;47184;57.998;56.184;2023-07-13T12:39:33;99270.78;;;40.73;16.02
61113;BME280;47184;57.998;56.184;2023-07-13T12:44:44;99268.31;;;37.23;18.69
61113;BME280;47184;57.998;56.184;2023-07-13T12:47:13;99270.34;;;36.63;19.28
61113;BME280;47184;57.998;56.184;2023-07-13T12:49:48;99258.63;;;35.45;19.97
61113;BME280;47184;57.998;56.184;2023-07-13T12:52:17;99249.03;;;35.51;20.64
61113;BME280;47184;57.998;56.184;2023-07-13T12:54:54;99228.28;;;34.92;20.11
61113;BME280;47184;57.998;56.184;2023-07-13T12:57:23;99268.88;;;33.99;21.46
61113;BME280;47184;57.998;56.184;2023-07-13T12:59:52;99253.13;;;32.52;22.76
61113;BME280;47184;57.998;56.184;2023-07-13T13:02:26;99263.56;;;31.80;23.21
61113;BME280;47184;57.998;56.184;2023-07-13T13:04:55;99261.88;;;31.05;24.20
61113;BME280;47184;57.998;56.184;2023-07-13T13:07:21;99267.16;;;30.11;25.15
61113;BME280;47184;57.998;56.184;2023-07-13T13:09:47;99253.41;;;29.44;25.50
61113;BME280;47184;57.998;56.184;2023-07-13T13:12:13;99269.06;;;28.92;26.24
61113;BME280;47184;57.998;56.184;2023-07-13T13:14:43;99233.81;;;28.41;27.01
61113;BME280;47184;57.998;56.184;2023-07-13T13:17:24;99263.16;;;29.04;26.52
61113;BME280;47184;57.998;56.184;2023-07-13T13:19:51;99255.34;;;30.30;25.49
61113;BME280;47184;57.998;56.184;2023-07-13T13:22:23;99252.84;;;32.01;24.03
61113;BME280;47184;57.998;56.184;2023-07-13T13:24:49;99236.88;;;33.11;22.68
61113;BME280;47184;57.998;56.184;2023-07-13T13:27:20;99243.38;;;33.27;22.35
61113;BME280;47184;57.998;56.184;2023-07-13T13:29:48;99238.66;;;32.34;23.45
61113;BME280;47184;57.998;56.184;2023-07-13T13:32:15;99248.84;;;31.33;23.53
61113;BME280;47184;57.998;56.184;2023-07-13T13:34:42;99226.13;;;30.08;24.92
61113;BME280;47184;57.998;56.184;2023-07-13T13:37:22;99240.88;;;29.43;25.53